sensor_id;sensor_type;location;lat;lon;timestamp;pressure;altitude;pressure_sealevel;temperature;humidity
64292;BME280;50628;51.008;13.658;2023-02-22T00:02:25;99781.97;;;9.20;100.00
64292;BME280;50628;51.008;13.658;2023-02-22T00:07:28;99774.28;;;9.18;100.00
64292;BME280;50628;51.008;13.658;2023-02-22T00:12:31;99771.78;;;9.17;100.00
64292;BME280;50628;51.008;13.658;2023-02-22T00:17:33;99775.09;;;9.19;100.00
64292;BME280;50628;51.008;13.658;2023-02-22T00:22:35;99776.88;;;9.18;100.00
64292;BME280;50628;51.008;13.658;2023-02-22T00:27:38;99776.25;;;9.15;100.00
64292;BME280;50628;51.008;13.658;2023-02-22T00:32:41;99771.03;;;9.03;100.00
64292;BME280;50628;51.008;13.658;2023-02-22T00:37:47;99765.31;;;9.22;100.00
64292;BME280;50628;51.008;13.658;2023-02-22T00:42:51;99773.66;;;9.15;100.00
64292;BME280;50628;51.008;13.658;2023-02-22T00:47:53;99770.31;;;9.01;100.00
64292;BME280;50628;51.008;13.658;2023-02-22T00:52:56;99772.56;;;8.95;100.00
64292;BME280;50628;51.008;13.658;2023-02-22T00:58:00;99772.56;;;8.95;100.00
64292;BME280;50628;51.008;13.658;2023-02-22T01:03:03;99780.50;;;8.80;100.00
64292;BME280;50628;51.008;13.658;2023-02-22T01:08:07;99771.28;;;8.76;100.00
64292;BME280;50628;51.008;13.658;2023-02-22T01:13:12;99776.03;;;8.58;100.00
64292;BME280;50628;51.008;13.658;2023-02-22T01:18:14;99771.69;;;8.83;100.00
64292;BME280;50628;51.008;13.658;2023-02-22T01:23:17;99775.56;;;8.77;100.00
64292;BME280;50628;51.008;13.658;2023-02-22T01:28:20;99766.44;;;8.48;100.00
64292;BME280;50628;51.008;13.658;2023-02-22T01:33:23;99765.06;;;8.55;100.00
64292;BME280;50628;51.008;13.658;2023-02-22T01:38:26;99763.97;;;8.33;100.00
64292;BME280;50628;51.008;13.658;2023-02-22T01:43:31;99768.03;;;8.24;100.00
64292;BME280;50628;51.008;13.658;2023-02-22T01:48:37;99753.72;;;8.32;100.00
64292;BME280;50628;51.008;13.658;2023-02-22T01:53:46;99750.75;;;8.36;100.00
64292;BME280;50628;51.008;13.658;2023-02-22T01:58:53;99752.09;;;8.55;100.00
64292;BME280;50628;51.008;13.658;2023-02-22T02:03:59;99754.53;;;8.32;100.00
64292;BME280;50628;51.008;13.658;2023-02-22T02:09:07;99753.25;;;8.38;100.00
64292;BME280;50628;51.008;13.658;2023-02-22T02:14:13;99756.84;;;8.24;100.00
64292;BME280;50628;51.008;13.658;2023-02-22T02:19:20;99750.16;;;8.45;100.00
64292;BME280;50628;51.008;13.658;2023-02-22T02:30:37;99733.84;;;8.43;100.00
64292;BME280;50628;51.008;13.658;2023-02-22T02:35:49;99732.00;;;8.33;100.00
64292;BME280;50628;51.008;13.658;2023-02-22T02:41:02;99730.06;;;8.23;100.00
64292;BME280;50628;51.008;13.658;2023-02-22T02:46:10;99726.38;;;8.15;100.00
64292;BME280;50628;51.008;13.658;2023-02-22T02:51:18;99721.00;;;8.05;100.00
64292;BME280;50628;51.008;13.658;2023-02-22T02:56:21;99726.06;;;7.70;100.00
64292;BME280;50628;51.008;13.658;2023-02-22T03:01:44;99730.50;;;7.68;100.00
64292;BME280;50628;51.008;13.658;2023-02-22T03:07:02;99718.63;;;8.02;100.00
64292;BME280;50628;51.008;13.658;2023-02-22T03:12:18;99715.78;;;8.18;100.00
64292;BME280;50628;51.008;13.658;2023-02-22T03:17:27;99711.59;;;8.04;100.00
64292;BME280;50628;51.008;13.658;2023-02-22T03:22:41;99707.81;;;8.08;100.00
64292;BME280;50628;51.008;13.658;2023-02-22T03:27:50;99706.09;;;7.96;100.00
64292;BME280;50628;51.008;13.658;2023-02-22T03:32:57;99706.00;;;7.97;100.00
64292;BME280;50628;51.008;13.658;2023-02-22T03:38:06;99703.53;;;7.83;100.00
64292;BME280;50628;51.008;13.658;2023-02-22T03:43:14;99703.03;;;7.78;100.00
64292;BME280;50628;51.008;13.658;2023-02-22T03:48:22;99713.59;;;7.88;100.00
64292;BME280;50628;51.008;13.658;2023-02-22T03:53:29;99703.22;;;7.88;100.00
64292;BME280;50628;51.008;13.658;2023-02-22T03:58:35;99703.84;;;7.91;100.00
64292;BME280;50628;51.008;13.658;2023-02-22T04:03:37;99707.69;;;7.73;100.00
64292;BME280;50628;51.008;13.658;2023-02-22T04:08:43;99706.59;;;7.64;100.00
64292;BME280;50628;51.008;13.658;2023-02-22T04:13:45;99704.94;;;7.50;100.00
64292;BME280;50628;51.008;13.658;2023-02-22T04:18:47;99705.63;;;7.65;100.00
64292;BME280;50628;51.008;13.658;2023-02-22T04:23:53;99704.81;;;7.65;100.00
64292;BME280;50628;51.008;13.658;2023-02-22T04:28:55;99696.75;;;7.56;100.00
64292;BME280;50628;51.008;13.658;2023-02-22T04:33:59;99694.25;;;7.55;100.00
64292;BME280;50628;51.008;13.658;2023-02-22T04:39:06;99701.09;;;7.30;100.00
64292;BME280;50628;51.008;13.658;2023-02-22T04:44:08;99708.13;;;7.15;100.00
64292;BME280;50628;51.008;13.658;2023-02-22T04:49:10;99692.94;;;7.11;100.00
64292;BME280;50628;51.008;13.658;2023-02-22T04:54:16;99703.91;;;7.14;100.00
64292;BME280;50628;51.008;13.658;2023-02-22T04:59:20;99702.03;;;7.04;100.00
64292;BME280;50628;51.008;13.658;2023-02-22T05:04:29;99703.59;;;7.06;100.00
64292;BME280;50628;51.008;13.658;2023-02-22T05:09:32;99699.34;;;7.18;100.00
64292;BME280;50628;51.008;13.658;2023-02-22T05:14:34;99694.78;;;7.09;100.00
64292;BME280;50628;51.008;13.658;2023-02-22T05:19:36;99701.41;;;7.00;100.00
64292;BME280;50628;51.008;13.658;2023-02-22T05:24:39;99704.94;;;6.99;100.00
64292;BME280;50628;51.008;13.658;2023-02-22T05:29:41;99703.28;;;6.98;100.00
64292;BME280;50628;51.008;13.658;2023-02-22T05:34:43;99696.88;;;7.04;100.00
64292;BME280;50628;51.008;13.658;2023-02-22T05:39:46;99697.91;;;7.14;100.00
64292;BME280;50628;51.008;13.658;2023-02-22T05:44:48;99698.94;;;7.11;100.00
64292;BME280;50628;51.008;13.658;2023-02-22T05:49:50;99694.59;;;7.12;100.00
64292;BME280;50628;51.008;13.658;2023-02-22T05:54:54;99707.66;;;7.23;100.00
64292;BME280;50628;51.008;13.658;2023-02-22T05:59:56;99705.06;;;7.23;100.00
64292;BME280;50628;51.008;13.658;2023-02-22T06:04:58;99707.13;;;7.31;100.00
64292;BME280;50628;51.008;13.658;2023-02-22T06:10:02;99701.94;;;7.31;100.00
64292;BME280;50628;51.008;13.658;2023-02-22T06:15:05;99700.50;;;7.27;100.00
64292;BME280;50628;51.008;13.658;2023-02-22T06:20:08;99707.31;;;7.28;100.00
64292;BME280;50628;51.008;13.658;2023-02-22T06:25:14;99705.16;;;7.22;100.00
64292;BME280;50628;51.008;13.658;2023-02-22T06:30:19;99706.72;;;7.24;100.00
64292;BME280;50628;51.008;13.658;2023-02-22T06:35:21;99715.22;;;7.26;100.00
64292;BME280;50628;51.008;13.658;2023-02-22T06:40:24;99717.66;;;7.15;100.00
64292;BME280;50628;51.008;13.658;2023-02-22T06:45:28;99722.53;;;7.20;100.00
64292;BME280;50628;51.008;13.658;2023-02-22T06:50:30;99719.13;;;7.32;100.00
64292;BME280;50628;51.008;13.658;2023-02-22T06:55:35;99726.16;;;7.30;100.00
64292;BME280;50628;51.008;13.658;2023-02-22T07:00:37;99728.25;;;7.37;100.00
64292;BME280;50628;51.008;13.658;2023-02-22T07:05:38;99725.34;;;7.42;100.00
64292;BME280;50628;51.008;13.658;2023-02-22T07:10:42;99731.34;;;7.30;100.00
64292;BME280;50628;51.008;13.658;2023-02-22T07:15:43;99724.22;;;7.46;100.00
64292;BME280;50628;51.008;13.658;2023-02-22T07:20:45;99732.06;;;7.45;100.00
64292;BME280;50628;51.008;13.658;2023-02-22T07:25:49;99736.63;;;7.54;100.00
64292;BME280;50628;51.008;13.658;2023-02-22T07:30:51;99739.31;;;7.65;100.00
64292;BME280;50628;51.008;13.658;2023-02-22T07:35:53;99745.75;;;7.72;100.00
64292;BME280;50628;51.008;13.658;2023-02-22T07:40:56;99751.44;;;7.77;100.00
64292;BME280;50628;51.008;13.658;2023-02-22T07:45:59;99742.81;;;7.90;100.00
64292;BME280;50628;51.008;13.658;2023-02-22T07:51:02;99745.38;;;8.02;100.00
64292;BME280;50628;51.008;13.658;2023-02-22T07:56:06;99736.75;;;8.15;100.00
64292;BME280;50628;51.008;13.658;2023-02-22T08:01:09;99735.38;;;8.22;100.00
64292;BME280;50628;51.008;13.658;2023-02-22T08:06:10;99733.59;;;8.22;100.00
64292;BME280;50628;51.008;13.658;2023-02-22T08:11:14;99733.28;;;8.27;100.00
64292;BME280;50628;51.008;13.658;2023-02-22T08:16:16;99729.91;;;8.38;100.00
64292;BME280;50628;51.008;13.658;2023-02-22T08:21:17;99731.66;;;8.50;100.00
64292;BME280;50628;51.008;13.658;2023-02-22T08:26:21;99733.22;;;8.53;100.00
64292;BME280;50628;51.008;13.658;2023-02-22T08:31:24;99725.69;;;8.61;100.00
64292;BME280;50628;51.008;13.658;2023-02-22T08:36:26;99730.00;;;8.73;100.00
64292;BME280;50628;51.008;13.658;2023-02-22T08:41:30;99722.78;;;8.77;100.00
64292;BME280;50628;51.008;13.658;2023-02-22T08:46:32;99719.13;;;9.03;100.00
64292;BME280;50628;51.008;13.658;2023-02-22T08:51:34;99718.91;;;9.18;100.00
64292;BME280;50628;51.008;13.658;2023-02-22T08:56:38;99714.78;;;9.26;100.00
64292;BME280;50628;51.008;13.658;2023-02-22T09:01:40;99715.97;;;9.34;100.00
64292;BME280;50628;51.008;13.658;2023-02-22T09:06:42;99718.13;;;9.62;100.00
64292;BME280;50628;51.008;13.658;2023-02-22T09:11:51;99726.63;;;9.64;100.00
64292;BME280;50628;51.008;13.658;2023-02-22T09:16:53;99710.44;;;9.72;100.00
64292;BME280;50628;51.008;13.658;2023-02-22T09:21:56;99710.81;;;9.79;100.00
64292;BME280;50628;51.008;13.658;2023-02-22T09:27:00;99692.00;;;9.86;100.00
64292;BME280;50628;51.008;13.658;2023-02-22T09:32:04;99696.50;;;9.95;100.00
64292;BME280;50628;51.008;13.658;2023-02-22T09:37:06;99702.34;;;10.20;100.00
64292;BME280;50628;51.008;13.658;2023-02-22T09:42:12;99704.69;;;10.34;100.00
64292;BME280;50628;51.008;13.658;2023-02-22T09:47:19;99686.22;;;10.37;100.00
64292;BME280;50628;51.008;13.658;2023-02-22T09:52:24;99688.72;;;10.39;100.00
64292;BME280;50628;51.008;13.658;2023-02-22T09:57:32;99671.88;;;10.54;100.00
64292;BME280;50628;51.008;13.658;2023-02-22T10:02:37;99664.00;;;10.66;100.00
64292;BME280;50628;51.008;13.658;2023-02-22T10:07:46;99669.84;;;10.79;100.00
64292;BME280;50628;51.008;13.658;2023-02-22T10:12:58;99674.69;;;10.83;100.00
64292;BME280;50628;51.008;13.658;2023-02-22T10:18:16;99669.22;;;10.87;100.00
64292;BME280;50628;51.008;13.658;2023-02-22T10:23:28;99672.28;;;10.92;100.00
64292;BME280;50628;51.008;13.658;2023-02-22T10:28:39;99661.31;;;10.98;100.00
64292;BME280;50628;51.008;13.658;2023-02-22T10:33:46;99665.25;;;11.13;100.00
64292;BME280;50628;51.008;13.658;2023-02-22T10:38:53;99655.97;;;11.20;100.00
64292;BME280;50628;51.008;13.658;2023-02-22T10:43:57;99650.03;;;11.39;100.00
64292;BME280;50628;51.008;13.658;2023-02-22T10:49:02;99633.59;;;11.48;100.00
64292;BME280;50628;51.008;13.658;2023-02-22T10:54:21;99643.34;;;11.56;100.00
64292;BME280;50628;51.008;13.658;2023-02-22T10:59:30;99647.47;;;11.49;100.00
64292;BME280;50628;51.008;13.658;2023-02-22T11:04:45;99630.50;;;11.64;100.00
64292;BME280;50628;51.008;13.658;2023-02-22T11:09:51;99634.31;;;11.60;100.00
64292;BME280;50628;51.008;13.658;2023-02-22T11:14:55;99632.91;;;11.46;100.00
64292;BME280;50628;51.008;13.658;2023-02-22T11:19:57;99627.81;;;11.45;100.00
64292;BME280;50628;51.008;13.658;2023-02-22T11:25:02;99623.34;;;11.57;100.00
64292;BME280;50628;51.008;13.658;2023-02-22T11:30:26;99616.31;;;11.47;100.00
64292;BME280;50628;51.008;13.658;2023-02-22T11:35:33;99615.56;;;11.36;100.00
64292;BME280;50628;51.008;13.658;2023-02-22T11:40:35;99602.44;;;11.37;100.00
64292;BME280;50628;51.008;13.658;2023-02-22T11:45:55;99600.31;;;11.62;100.00
64292;BME280;50628;51.008;13.658;2023-02-22T11:51:15;99597.16;;;11.68;100.00
64292;BME280;50628;51.008;13.658;2023-02-22T11:56:25;99586.19;;;11.64;100.00
64292;BME280;50628;51.008;13.658;2023-02-22T12:01:37;99588.09;;;11.62;100.00
64292;BME280;50628;51.008;13.658;2023-02-22T12:06:45;99588.34;;;11.69;100.00
64292;BME280;50628;51.008;13.658;2023-02-22T12:12:02;99583.28;;;11.58;100.00
64292;BME280;50628;51.008;13.658;2023-02-22T12:17:24;99583.97;;;11.60;100.00
64292;BME280;50628;51.008;13.658;2023-02-22T12:22:35;99576.59;;;11.84;100.00
64292;BME280;50628;51.008;13.658;2023-02-22T12:27:42;99580.97;;;11.64;100.00
64292;BME280;50628;51.008;13.658;2023-02-22T12:32:50;99580.56;;;11.79;100.00
64292;BME280;50628;51.008;13.658;2023-02-22T12:38:00;99571.47;;;11.63;100.00
64292;BME280;50628;51.008;13.658;2023-02-22T12:43:09;99564.16;;;11.88;100.00
64292;BME280;50628;51.008;13.658;2023-02-22T12:48:28;99575.63;;;11.85;100.00
64292;BME280;50628;51.008;13.658;2023-02-22T12:53:34;99562.22;;;11.90;100.00
64292;BME280;50628;51.008;13.658;2023-02-22T12:58:45;99550.94;;;11.99;100.00
64292;BME280;50628;51.008;13.658;2023-02-22T13:03:52;99557.97;;;12.08;100.00
64292;BME280;50628;51.008;13.658;2023-02-22T13:09:08;99560.56;;;12.08;100.00
64292;BME280;50628;51.008;13.658;2023-02-22T13:14:32;99558.25;;;11.96;100.00
64292;BME280;50628;51.008;13.658;2023-02-22T13:19:43;99558.78;;;12.09;100.00
64292;BME280;50628;51.008;13.658;2023-02-22T13:24:57;99556.34;;;12.07;100.00
64292;BME280;50628;51.008;13.658;2023-02-22T13:30:01;99559.47;;;12.01;100.00
64292;BME280;50628;51.008;13.658;2023-02-22T13:35:38;99549.50;;;11.56;100.00
64292;BME280;50628;51.008;13.658;2023-02-22T13:40:57;99556.41;;;11.77;100.00
64292;BME280;50628;51.008;13.658;2023-02-22T13:46:23;99549.56;;;11.85;100.00
64292;BME280;50628;51.008;13.658;2023-02-22T13:51:48;99553.16;;;12.04;100.00
64292;BME280;50628;51.008;13.658;2023-02-22T13:56:53;99551.94;;;11.98;100.00
64292;BME280;50628;51.008;13.658;2023-02-22T14:01:56;99546.84;;;11.97;100.00
64292;BME280;50628;51.008;13.658;2023-02-22T14:07:00;99557.94;;;11.89;100.00
64292;BME280;50628;51.008;13.658;2023-02-22T14:12:03;99547.94;;;12.04;100.00
64292;BME280;50628;51.008;13.658;2023-02-22T14:17:24;99544.22;;;11.97;100.00
64292;BME280;50628;51.008;13.658;2023-02-22T14:22:30;99550.38;;;11.86;100.00
64292;BME280;50628;51.008;13.658;2023-02-22T14:27:39;99529.00;;;12.02;100.00
64292;BME280;50628;51.008;13.658;2023-02-22T14:32:42;99533.78;;;12.26;100.00
64292;BME280;50628;51.008;13.658;2023-02-22T14:37:48;99528.56;;;12.26;100.00
64292;BME280;50628;51.008;13.658;2023-02-22T14:43:00;99516.22;;;12.08;100.00
64292;BME280;50628;51.008;13.658;2023-02-22T14:48:14;99515.94;;;12.11;100.00
64292;BME280;50628;51.008;13.658;2023-02-22T14:53:24;99518.41;;;12.32;100.00
64292;BME280;50628;51.008;13.658;2023-02-22T14:58:33;99516.78;;;12.69;100.00
64292;BME280;50628;51.008;13.658;2023-02-22T15:03:37;99515.59;;;13.28;100.00
64292;BME280;50628;51.008;13.658;2023-02-22T15:08:41;99508.47;;;12.93;100.00
64292;BME280;50628;51.008;13.658;2023-02-22T15:13:49;99509.34;;;12.74;100.00
64292;BME280;50628;51.008;13.658;2023-02-22T15:18:53;99498.66;;;12.20;100.00
64292;BME280;50628;51.008;13.658;2023-02-22T15:23:59;99492.63;;;12.10;100.00
64292;BME280;50628;51.008;13.658;2023-02-22T15:29:09;99490.63;;;12.31;100.00
64292;BME280;50628;51.008;13.658;2023-02-22T15:34:19;99485.22;;;11.96;100.00
64292;BME280;50628;51.008;13.658;2023-02-22T15:39:27;99483.00;;;11.62;100.00
64292;BME280;50628;51.008;13.658;2023-02-22T15:44:34;99482.97;;;11.72;100.00
64292;BME280;50628;51.008;13.658;2023-02-22T15:49:36;99483.41;;;11.57;100.00
64292;BME280;50628;51.008;13.658;2023-02-22T15:54:43;99490.13;;;11.50;100.00
64292;BME280;50628;51.008;13.658;2023-02-22T15:59:49;99485.31;;;11.45;100.00
64292;BME280;50628;51.008;13.658;2023-02-22T16:04:57;99487.69;;;11.08;100.00
64292;BME280;50628;51.008;13.658;2023-02-22T16:10:02;99487.44;;;11.01;100.00
64292;BME280;50628;51.008;13.658;2023-02-22T16:15:14;99479.59;;;10.92;100.00
64292;BME280;50628;51.008;13.658;2023-02-22T16:20:30;99478.19;;;10.88;100.00
64292;BME280;50628;51.008;13.658;2023-02-22T16:25:34;99482.81;;;10.74;100.00
64292;BME280;50628;51.008;13.658;2023-02-22T16:30:38;99491.75;;;10.51;100.00
64292;BME280;50628;51.008;13.658;2023-02-22T16:35:40;99494.22;;;10.31;100.00
64292;BME280;50628;51.008;13.658;2023-02-22T16:40:54;99499.97;;;10.14;100.00
64292;BME280;50628;51.008;13.658;2023-02-22T16:45:58;99491.41;;;10.02;100.00
64292;BME280;50628;51.008;13.658;2023-02-22T16:51:06;99492.81;;;10.06;100.00
64292;BME280;50628;51.008;13.658;2023-02-22T16:56:12;99485.38;;;10.02;100.00
64292;BME280;50628;51.008;13.658;2023-02-22T17:01:16;99489.31;;;9.96;100.00
64292;BME280;50628;51.008;13.658;2023-02-22T17:06:19;99493.19;;;9.69;100.00
64292;BME280;50628;51.008;13.658;2023-02-22T17:11:22;99492.38;;;9.37;100.00
64292;BME280;50628;51.008;13.658;2023-02-22T17:16:24;99500.34;;;9.13;100.00
64292;BME280;50628;51.008;13.658;2023-02-22T17:21:26;99491.97;;;8.98;100.00
64292;BME280;50628;51.008;13.658;2023-02-22T17:26:29;99509.91;;;8.67;100.00
64292;BME280;50628;51.008;13.658;2023-02-22T17:31:31;99495.88;;;8.81;100.00
64292;BME280;50628;51.008;13.658;2023-02-22T17:36:33;99501.06;;;8.70;100.00
64292;BME280;50628;51.008;13.658;2023-02-22T17:41:37;99499.88;;;8.74;100.00
64292;BME280;50628;51.008;13.658;2023-02-22T17:46:39;99506.47;;;8.55;100.00
64292;BME280;50628;51.008;13.658;2023-02-22T17:51:41;99500.09;;;8.48;100.00
64292;BME280;50628;51.008;13.658;2023-02-22T17:56:50;99504.97;;;8.17;100.00
64292;BME280;50628;51.008;13.658;2023-02-22T18:01:52;99500.38;;;8.21;100.00
64292;BME280;50628;51.008;13.658;2023-02-22T18:06:54;99496.22;;;8.07;100.00
64292;BME280;50628;51.008;13.658;2023-02-22T18:11:57;99491.13;;;7.94;100.00
64292;BME280;50628;51.008;13.658;2023-02-22T18:16:59;99493.56;;;7.85;100.00
64292;BME280;50628;51.008;13.658;2023-02-22T18:22:01;99487.88;;;7.79;100.00
64292;BME280;50628;51.008;13.658;2023-02-22T18:27:05;99487.47;;;7.62;100.00
64292;BME280;50628;51.008;13.658;2023-02-22T18:32:06;99488.22;;;7.75;100.00
64292;BME280;50628;51.008;13.658;2023-02-22T18:37:12;99485.91;;;7.59;100.00
64292;BME280;50628;51.008;13.658;2023-02-22T18:42:21;99477.03;;;7.50;100.00
64292;BME280;50628;51.008;13.658;2023-02-22T18:47:24;99482.34;;;7.49;100.00
64292;BME280;50628;51.008;13.658;2023-02-22T18:52:25;99483.22;;;7.36;100.00
64292;BME280;50628;51.008;13.658;2023-02-22T18:57:31;99474.59;;;7.12;100.00
64292;BME280;50628;51.008;13.658;2023-02-22T19:02:35;99472.88;;;7.00;100.00
64292;BME280;50628;51.008;13.658;2023-02-22T19:07:37;99479.59;;;7.02;100.00
64292;BME280;50628;51.008;13.658;2023-02-22T19:12:41;99472.44;;;7.06;100.00
64292;BME280;50628;51.008;13.658;2023-02-22T19:17:42;99475.66;;;6.97;100.00
64292;BME280;50628;51.008;13.658;2023-02-22T19:22:45;99467.81;;;6.85;100.00
64292;BME280;50628;51.008;13.658;2023-02-22T19:27:50;99464.13;;;6.77;100.00
64292;BME280;50628;51.008;13.658;2023-02-22T19:32:56;99467.16;;;6.70;100.00
64292;BME280;50628;51.008;13.658;2023-02-22T19:37:58;99469.63;;;6.59;100.00
64292;BME280;50628;51.008;13.658;2023-02-22T19:43:01;99460.25;;;6.45;100.00
64292;BME280;50628;51.008;13.658;2023-02-22T19:48:03;99461.16;;;6.44;100.00
64292;BME280;50628;51.008;13.658;2023-02-22T19:53:05;99456.19;;;6.41;100.00
64292;BME280;50628;51.008;13.658;2023-02-22T19:58:08;99460.53;;;6.28;100.00
64292;BME280;50628;51.008;13.658;2023-02-22T20:03:14;99467.78;;;6.23;100.00
64292;BME280;50628;51.008;13.658;2023-02-22T20:08:22;99465.28;;;6.09;100.00
64292;BME280;50628;51.008;13.658;2023-02-22T20:13:27;99463.69;;;5.93;100.00
64292;BME280;50628;51.008;13.658;2023-02-22T20:18:29;99464.56;;;6.06;100.00
64292;BME280;50628;51.008;13.658;2023-02-22T20:23:31;99464.41;;;5.82;100.00
64292;BME280;50628;51.008;13.658;2023-02-22T20:28:34;99462.41;;;5.73;100.00
64292;BME280;50628;51.008;13.658;2023-02-22T20:33:36;99460.44;;;5.77;100.00
64292;BME280;50628;51.008;13.658;2023-02-22T20:38:41;99461.81;;;5.82;100.00
64292;BME280;50628;51.008;13.658;2023-02-22T20:43:48;99450.44;;;5.72;100.00
64292;BME280;50628;51.008;13.658;2023-02-22T20:48:53;99452.16;;;5.72;100.00
64292;BME280;50628;51.008;13.658;2023-02-22T20:53:55;99443.06;;;5.66;100.00
64292;BME280;50628;51.008;13.658;2023-02-22T20:59:01;99441.72;;;5.60;100.00
64292;BME280;50628;51.008;13.658;2023-02-22T21:04:05;99439.84;;;5.50;100.00
64292;BME280;50628;51.008;13.658;2023-02-22T21:09:10;99446.56;;;5.52;100.00
64292;BME280;50628;51.008;13.658;2023-02-22T21:14:15;99446.03;;;5.47;100.00
64292;BME280;50628;51.008;13.658;2023-02-22T21:19:19;99453.53;;;5.37;100.00
64292;BME280;50628;51.008;13.658;2023-02-22T21:24:27;99457.41;;;5.30;100.00
64292;BME280;50628;51.008;13.658;2023-02-22T21:29:30;99442.53;;;5.34;100.00
64292;BME280;50628;51.008;13.658;2023-02-22T21:34:35;99439.34;;;5.30;100.00
64292;BME280;50628;51.008;13.658;2023-02-22T21:39:37;99441.94;;;5.30;100.00
64292;BME280;50628;51.008;13.658;2023-02-22T21:44:40;99429.16;;;5.41;100.00
64292;BME280;50628;51.008;13.658;2023-02-22T21:49:42;99433.25;;;5.31;100.00
64292;BME280;50628;51.008;13.658;2023-02-22T21:54:44;99421.72;;;5.10;100.00
64292;BME280;50628;51.008;13.658;2023-02-22T21:59:47;99420.72;;;4.98;100.00
64292;BME280;50628;51.008;13.658;2023-02-22T22:04:52;99417.78;;;5.04;100.00
64292;BME280;50628;51.008;13.658;2023-02-22T22:09:55;99422.97;;;4.90;100.00
64292;BME280;50628;51.008;13.658;2023-02-22T22:14:58;99416.13;;;5.03;100.00
64292;BME280;50628;51.008;13.658;2023-02-22T22:20:00;99417.81;;;4.90;100.00
64292;BME280;50628;51.008;13.658;2023-02-22T22:25:05;99417.00;;;4.75;100.00
64292;BME280;50628;51.008;13.658;2023-02-22T22:30:10;99417.75;;;4.77;100.00
64292;BME280;50628;51.008;13.658;2023-02-22T22:35:12;99420.59;;;4.72;100.00
64292;BME280;50628;51.008;13.658;2023-02-22T22:40:15;99416.28;;;4.73;100.00
64292;BME280;50628;51.008;13.658;2023-02-22T22:45:18;99427.94;;;4.78;100.00
64292;BME280;50628;51.008;13.658;2023-02-22T22:50:21;99419.75;;;4.86;100.00
64292;BME280;50628;51.008;13.658;2023-02-22T22:55:25;99420.63;;;4.58;100.00
64292;BME280;50628;51.008;13.658;2023-02-22T23:00:29;99418.56;;;4.92;100.00
64292;BME280;50628;51.008;13.658;2023-02-22T23:05:35;99424.63;;;4.91;100.00
64292;BME280;50628;51.008;13.658;2023-02-22T23:10:39;99427.16;;;4.64;100.00
64292;BME280;50628;51.008;13.658;2023-02-22T23:15:43;99427.78;;;4.53;100.00
64292;BME280;50628;51.008;13.658;2023-02-22T23:20:47;99425.41;;;4.36;100.00
64292;BME280;50628;51.008;13.658;2023-02-22T23:26:05;99420.63;;;4.29;100.00
64292;BME280;50628;51.008;13.658;2023-02-22T23:31:16;99430.28;;;4.40;100.00
64292;BME280;50628;51.008;13.658;2023-02-22T23:36:18;99425.72;;;4.31;100.00
64292;BME280;50628;51.008;13.658;2023-02-22T23:41:20;99428.06;;;4.20;100.00
64292;BME280;50628;51.008;13.658;2023-02-22T23:46:25;99429.16;;;4.01;100.00
64292;BME280;50628;51.008;13.658;2023-02-22T23:51:32;99428.16;;;4.04;100.00
64292;BME280;50628;51.008;13.658;2023-02-22T23:56:39;99428.91;;;4.06;100.00
